createdAt,value
2023-06-01T00:00:58.379Z,886.00
2023-06-01T00:01:58.389Z,883.00
2023-06-01T00:02:58.481Z,883.00
2023-06-01T00:03:58.553Z,890.00
2023-06-01T00:04:59.463Z,883.00
2023-06-01T00:05:59.488Z,887.00
2023-06-01T00:06:59.489Z,883.00
2023-06-01T00:07:59.506Z,869.00
2023-06-01T00:08:59.520Z,889.00
2023-06-01T00:09:59.550Z,878.00
2023-06-01T00:10:59.761Z,887.00
2023-06-01T00:11:58.585Z,888.00
2023-06-01T00:12:59.638Z,878.00
2023-06-01T00:13:59.621Z,874.00
2023-06-01T00:14:58.654Z,882.00
2023-06-01T00:15:58.708Z,880.00
2023-06-01T00:16:59.684Z,885.00
2023-06-01T00:17:58.827Z,886.00
2023-06-01T00:18:59.715Z,883.00
2023-06-01T00:19:58.729Z,872.00
2023-06-01T00:20:59.958Z,884.00
2023-06-01T00:21:58.881Z,870.00
2023-06-01T00:22:58.822Z,883.00
2023-06-01T00:24:00.188Z,889.00
2023-06-01T00:24:58.856Z,896.00
2023-06-01T00:25:59.803Z,897.00
2023-06-01T00:26:59.815Z,883.00
2023-06-01T00:27:59.836Z,883.00
2023-06-01T00:28:59.804Z,892.00
2023-06-01T00:29:59.774Z,890.00
2023-06-01T00:31:00.038Z,884.00
2023-06-01T00:31:59.820Z,897.00
2023-06-01T00:32:59.812Z,894.00
2023-06-01T00:33:59.748Z,895.00
2023-06-01T00:34:58.750Z,883.00
2023-06-01T00:35:58.733Z,879.00
2023-06-01T00:36:59.757Z,888.00
2023-06-01T00:37:58.750Z,876.00
2023-06-01T00:38:59.728Z,875.00
2023-06-01T00:39:59.734Z,892.00
2023-06-01T00:40:58.789Z,869.00
2023-06-01T00:41:59.032Z,883.00
2023-06-01T00:42:59.686Z,868.00
2023-06-01T00:43:58.687Z,883.00
2023-06-01T00:44:59.672Z,881.00
2023-06-01T00:45:58.688Z,878.00
2023-06-01T00:46:58.679Z,874.00
2023-06-01T00:47:58.682Z,889.00
2023-06-01T00:48:58.645Z,876.00
2023-06-01T00:49:59.632Z,880.00
2023-06-01T00:50:59.748Z,875.00
2023-06-01T00:51:59.641Z,876.00
2023-06-01T00:52:58.625Z,884.00
2023-06-01T00:53:59.602Z,879.00
2023-06-01T00:54:59.601Z,881.00
2023-06-01T00:55:59.583Z,870.00
2023-06-01T00:56:58.591Z,886.00
2023-06-01T00:57:58.614Z,885.00
2023-06-01T00:58:58.577Z,878.00
2023-06-01T00:59:58.562Z,875.00
2023-06-01T01:00:58.640Z,875.00
2023-06-01T01:01:59.548Z,873.00
2023-06-01T01:02:59.623Z,867.00
2023-06-01T01:03:59.612Z,877.00
2023-06-01T01:04:58.699Z,871.00
2023-06-01T01:05:59.667Z,870.00
2023-06-01T01:06:59.691Z,867.00
2023-06-01T01:07:58.748Z,877.00
2023-06-01T01:08:59.773Z,855.00
2023-06-01T01:09:59.780Z,869.00
2023-06-01T01:11:00.048Z,865.00
2023-06-01T01:11:59.856Z,868.00
2023-06-01T01:12:59.912Z,873.00
2023-06-01T01:13:58.932Z,876.00
2023-06-01T01:14:58.938Z,875.00
2023-06-01T01:15:58.976Z,867.00
2023-06-01T01:16:59.057Z,870.00
2023-06-01T01:18:00.121Z,875.00
2023-06-01T01:19:00.082Z,881.00
2023-06-01T01:19:59.113Z,871.00
2023-06-01T01:21:00.304Z,870.00
2023-06-01T01:22:00.289Z,868.00
2023-06-01T01:23:00.253Z,877.00
2023-06-01T01:23:59.226Z,878.00
2023-06-01T01:24:59.241Z,868.00
2023-06-01T01:25:59.282Z,865.00
2023-06-01T01:27:00.317Z,868.00
2023-06-01T01:27:59.346Z,872.00
2023-06-01T01:29:00.383Z,860.00
2023-06-01T01:29:59.425Z,858.00
2023-06-01T01:31:00.809Z,859.00
2023-06-01T01:32:00.466Z,868.00
2023-06-01T01:32:59.559Z,864.00
2023-06-01T01:34:00.557Z,886.00
2023-06-01T01:35:00.576Z,863.00
2023-06-01T01:36:00.606Z,858.00
2023-06-01T01:37:00.633Z,860.00
2023-06-01T01:37:59.693Z,858.00
2023-06-01T01:38:59.688Z,864.00
2023-06-01T01:40:00.740Z,860.00
2023-06-01T01:41:00.073Z,863.00
2023-06-01T01:41:59.816Z,859.00
2023-06-01T01:42:59.848Z,868.00
2023-06-01T01:44:00.858Z,867.00
2023-06-01T01:44:59.940Z,866.00
2023-06-01T01:45:59.967Z,859.00
2023-06-01T01:47:00.037Z,859.00
2023-06-01T01:48:01.013Z,859.00
2023-06-01T01:49:00.027Z,863.00
2023-06-01T01:50:01.056Z,864.00
2023-06-01T01:51:01.390Z,852.00
2023-06-01T01:52:01.138Z,855.00
2023-06-01T01:53:01.183Z,849.00
2023-06-01T01:54:00.190Z,858.00
2023-06-01T01:55:00.217Z,862.00
2023-06-01T01:56:00.289Z,854.00
2023-06-01T01:57:01.279Z,855.00
2023-06-01T01:58:00.332Z,867.00
2023-06-01T01:59:01.368Z,848.00
2023-06-01T02:00:01.390Z,852.00
2023-06-01T02:01:00.664Z,856.00
2023-06-01T02:02:01.559Z,858.00
2023-06-01T02:03:00.590Z,851.00
2023-06-01T02:04:01.559Z,842.00
2023-06-01T02:05:01.561Z,851.00
2023-06-01T02:06:01.635Z,847.00
2023-06-01T02:07:01.618Z,836.00
2023-06-01T02:08:00.672Z,842.00
2023-06-01T02:09:00.721Z,839.00
2023-06-01T02:10:00.714Z,855.00
2023-06-01T02:11:00.942Z,850.00
2023-06-01T02:12:00.777Z,823.00
2023-06-01T02:13:01.828Z,846.00
2023-06-01T02:14:01.864Z,841.00
2023-06-01T02:15:01.896Z,834.00
2023-06-01T02:16:00.930Z,841.00
2023-06-01T02:17:00.948Z,848.00
2023-06-01T02:18:00.975Z,840.00
2023-06-01T02:19:01.017Z,841.00
2023-06-01T02:20:01.056Z,837.00
2023-06-01T02:21:02.295Z,832.00
2023-06-01T02:22:02.231Z,843.00
2023-06-01T02:23:02.161Z,831.00
2023-06-01T02:24:02.203Z,830.00
2023-06-01T02:25:01.212Z,837.00
2023-06-01T02:26:01.265Z,829.00
2023-06-01T02:27:01.341Z,834.00
2023-06-01T02:28:02.345Z,831.00
2023-06-01T02:29:01.405Z,838.00
2023-06-01T02:30:01.440Z,826.00
2023-06-01T02:31:02.613Z,844.00
2023-06-01T02:32:01.584Z,832.00
2023-06-01T02:33:02.569Z,830.00
2023-06-01T02:34:02.614Z,840.00
2023-06-01T02:35:02.601Z,824.00
2023-06-01T02:36:02.619Z,832.00
2023-06-01T02:37:01.670Z,829.00
2023-06-01T02:38:01.710Z,840.00
2023-06-01T02:39:02.812Z,840.00
2023-06-01T02:40:01.788Z,820.00
2023-06-01T02:41:03.158Z,840.00
2023-06-01T02:42:02.888Z,843.00
2023-06-01T02:43:01.914Z,835.00
2023-06-01T02:44:02.970Z,822.00
2023-06-01T02:45:03.042Z,823.00
2023-06-01T02:46:03.083Z,826.00
2023-06-01T02:47:02.077Z,819.00
2023-06-01T02:48:03.146Z,817.00
2023-06-01T02:49:03.195Z,828.00
2023-06-01T02:50:03.244Z,828.00
2023-06-01T02:51:03.567Z,825.00
2023-06-01T02:52:02.303Z,826.00
2023-06-01T02:53:03.336Z,814.00
2023-06-01T02:54:03.370Z,825.00
2023-06-01T02:55:02.427Z,815.00
2023-06-01T02:56:02.451Z,816.00
2023-06-01T02:57:02.481Z,821.00
2023-06-01T02:58:02.535Z,824.00
2023-06-01T02:59:03.603Z,814.00
2023-06-01T03:00:02.613Z,824.00
2023-06-01T03:01:03.950Z,817.00
2023-06-01T03:02:03.718Z,813.00
2023-06-01T03:03:02.835Z,816.00
2023-06-01T03:04:03.900Z,817.00
2023-06-01T03:05:03.858Z,818.00
2023-06-01T03:06:03.895Z,832.00
2023-06-01T03:07:02.948Z,807.00
2023-06-01T03:08:02.953Z,822.00
2023-06-01T03:09:03.043Z,814.00
2023-06-01T03:10:03.060Z,811.00
2023-06-01T03:11:04.102Z,820.00
2023-06-01T03:12:03.120Z,811.00
2023-06-01T03:13:03.164Z,802.00
2023-06-01T03:14:04.211Z,820.00
2023-06-01T03:15:03.296Z,814.00
2023-06-01T03:16:04.310Z,817.00
2023-06-01T03:17:03.287Z,807.00
2023-06-01T03:18:04.354Z,794.00
2023-06-01T03:19:03.448Z,803.00
2023-06-01T03:20:04.427Z,805.00
2023-06-01T03:21:04.587Z,809.00
2023-06-01T03:22:04.574Z,801.00
2023-06-01T03:23:04.527Z,803.00
2023-06-01T03:24:03.565Z,791.00
2023-06-01T03:25:03.577Z,794.00
2023-06-01T03:26:04.618Z,820.00
2023-06-01T03:27:03.694Z,807.00
2023-06-01T03:28:04.703Z,796.00
2023-06-01T03:29:03.771Z,801.00
2023-06-01T03:30:04.775Z,790.00
2023-06-01T03:31:04.076Z,792.00
2023-06-01T03:32:03.875Z,794.00
2023-06-01T03:33:04.953Z,808.00
2023-06-01T03:34:03.944Z,800.00
2023-06-01T03:35:03.989Z,804.00
2023-06-01T03:36:04.043Z,800.00
2023-06-01T03:37:05.059Z,800.00
2023-06-01T03:38:05.109Z,808.00
2023-06-01T03:39:05.190Z,805.00
2023-06-01T03:40:05.188Z,806.00
2023-06-01T03:41:04.466Z,801.00
2023-06-01T03:42:04.273Z,790.00
2023-06-01T03:43:05.338Z,810.00
2023-06-01T03:44:05.374Z,796.00
2023-06-01T03:45:05.382Z,795.00
2023-06-01T03:46:05.451Z,803.00
2023-06-01T03:47:04.541Z,791.00
2023-06-01T03:48:05.559Z,801.00
2023-06-01T03:49:05.573Z,784.00
2023-06-01T03:50:04.624Z,798.00
2023-06-01T03:51:05.652Z,802.00
2023-06-01T03:52:05.712Z,789.00
2023-06-01T03:53:05.746Z,797.00
2023-06-01T03:54:04.825Z,792.00
2023-06-01T03:55:06.387Z,787.00
2023-06-01T03:56:05.872Z,780.00
2023-06-01T03:57:04.920Z,784.00
2023-06-01T03:58:04.968Z,777.00
2023-06-01T03:59:05.033Z,791.00
2023-06-01T04:00:06.083Z,785.00
2023-06-01T04:01:06.114Z,782.00
2023-06-01T04:02:06.284Z,777.00
2023-06-01T04:03:05.300Z,771.00
2023-06-01T04:04:05.335Z,764.00
2023-06-01T04:05:05.305Z,773.00
2023-06-01T04:06:06.354Z,769.00
2023-06-01T04:07:05.405Z,777.00
2023-06-01T04:08:06.456Z,772.00
2023-06-01T04:09:06.484Z,764.00
2023-06-01T04:10:05.530Z,778.00
2023-06-01T04:11:06.568Z,775.00
2023-06-01T04:12:06.622Z,771.00
2023-06-01T04:13:05.683Z,783.00
2023-06-01T04:14:05.723Z,779.00
2023-06-01T04:15:06.768Z,761.00
2023-06-01T04:16:05.835Z,767.00
2023-06-01T04:17:05.904Z,762.00
2023-06-01T04:18:06.949Z,769.00
2023-06-01T04:19:06.970Z,757.00
2023-06-01T04:20:05.989Z,760.00
2023-06-01T04:21:07.045Z,774.00
2023-06-01T04:22:07.204Z,763.00
2023-06-01T04:23:06.113Z,748.00
2023-06-01T04:24:07.186Z,750.00
2023-06-01T04:25:07.223Z,759.00
2023-06-01T04:26:06.260Z,744.00
2023-06-01T04:27:06.303Z,743.00
2023-06-01T04:28:07.355Z,753.00
2023-06-01T04:29:07.406Z,743.00
2023-06-01T04:30:06.465Z,754.00
2023-06-01T04:31:07.498Z,760.00
2023-06-01T04:32:06.728Z,753.00
2023-06-01T04:33:06.604Z,759.00
2023-06-01T04:34:07.640Z,737.00
2023-06-01T04:35:06.674Z,752.00
2023-06-01T04:36:06.721Z,750.00
2023-06-01T04:37:06.729Z,738.00
2023-06-01T04:38:06.769Z,745.00
2023-06-01T04:39:07.880Z,743.00
2023-06-01T04:40:07.863Z,735.00
2023-06-01T04:41:06.895Z,749.00
2023-06-01T04:42:07.937Z,731.00
2023-06-01T04:43:07.969Z,718.00
2023-06-01T04:44:08.044Z,741.00
2023-06-01T04:45:07.081Z,743.00
2023-06-01T04:46:07.143Z,727.00
2023-06-01T04:47:07.151Z,733.00
2023-06-01T04:48:08.223Z,735.00
2023-06-01T04:49:08.238Z,725.00
2023-06-01T04:50:08.305Z,744.00
2023-06-01T04:51:08.295Z,713.00
2023-06-01T04:52:08.358Z,731.00
2023-06-01T04:53:07.391Z,733.00
2023-06-01T04:54:08.460Z,736.00
2023-06-01T04:55:08.488Z,730.00
2023-06-01T04:56:07.504Z,719.00
2023-06-01T04:57:08.543Z,713.00
2023-06-01T04:58:08.606Z,723.00
2023-06-01T04:59:08.692Z,722.00
2023-06-01T05:00:08.654Z,732.00
2023-06-01T05:01:08.708Z,724.00
2023-06-01T05:02:07.755Z,709.00
2023-06-01T05:03:07.790Z,712.00
2023-06-01T05:04:07.852Z,715.00
2023-06-01T05:05:07.826Z,709.00
2023-06-01T05:06:09.009Z,715.00
2023-06-01T05:07:08.945Z,710.00
2023-06-01T05:08:08.990Z,718.00
2023-06-01T05:09:09.017Z,711.00
2023-06-01T05:10:09.020Z,724.00
2023-06-01T05:11:08.113Z,712.00
2023-06-01T05:12:09.089Z,708.00
2023-06-01T05:13:09.158Z,698.00
2023-06-01T05:14:09.165Z,707.00
2023-06-01T05:15:08.401Z,707.00
2023-06-01T05:16:08.390Z,712.00
2023-06-01T05:17:09.479Z,706.00
2023-06-01T05:18:08.498Z,713.00
2023-06-01T05:19:09.529Z,710.00
2023-06-01T05:20:08.399Z,711.00
2023-06-01T05:21:08.929Z,694.00
2023-06-01T05:22:09.487Z,721.00
2023-06-01T05:23:09.484Z,700.00
2023-06-01T05:24:08.573Z,703.00
2023-06-01T05:25:09.556Z,707.00
2023-06-01T05:26:09.616Z,701.00
2023-06-01T05:27:08.606Z,665.00
2023-06-01T05:28:09.654Z,641.00
2023-06-01T05:29:09.677Z,623.00
2023-06-01T05:30:08.751Z,629.00
2023-06-01T05:31:08.898Z,637.00
2023-06-01T05:32:08.847Z,640.00
2023-06-01T05:33:09.905Z,636.00
2023-06-01T05:34:09.920Z,655.00
2023-06-01T05:35:09.956Z,652.00
2023-06-01T05:36:09.113Z,665.00
2023-06-01T05:37:09.983Z,677.00
2023-06-01T05:38:09.984Z,694.00
2023-06-01T05:39:16.448Z,742.00
2023-06-01T05:40:08.966Z,745.00
2023-06-01T05:41:09.947Z,754.00
2023-06-01T05:42:09.955Z,769.00
2023-06-01T05:43:09.936Z,807.00
2023-06-01T05:44:09.921Z,878.00
2023-06-01T05:45:09.928Z,920.00
2023-06-01T05:46:09.934Z,910.00
2023-06-01T05:47:09.903Z,899.00
2023-06-01T05:48:09.986Z,725.00
2023-06-01T05:49:08.891Z,620.00
2023-06-01T05:50:09.883Z,577.00
2023-06-01T05:51:09.883Z,529.00
2023-06-01T05:52:09.869Z,500.00
2023-06-01T05:53:08.865Z,500.00
2023-06-01T05:54:08.856Z,498.00
2023-06-01T05:55:08.846Z,501.00
2023-06-01T05:56:08.847Z,503.00
2023-06-01T05:57:09.873Z,503.00
2023-06-01T05:58:08.823Z,508.00
2023-06-01T05:59:09.826Z,524.00
2023-06-01T06:00:09.822Z,539.00
2023-06-01T06:01:08.794Z,532.00
2023-06-01T06:02:09.854Z,549.00
2023-06-01T06:03:08.865Z,558.00
2023-06-01T06:04:08.906Z,584.00
2023-06-01T06:05:09.788Z,604.00
2023-06-01T06:06:09.765Z,624.00
2023-06-01T06:07:09.772Z,640.00
2023-06-01T06:08:09.749Z,643.00
2023-06-01T06:09:09.754Z,653.00
2023-06-01T06:10:09.750Z,656.00
2023-06-01T06:11:09.738Z,664.00
2023-06-01T06:12:08.752Z,676.00
2023-06-01T06:13:09.799Z,683.00
2023-06-01T06:14:09.851Z,707.00
2023-06-01T06:15:09.911Z,714.00
2023-06-01T06:16:08.967Z,716.00
2023-06-01T06:17:09.968Z,717.00
2023-06-01T06:18:10.094Z,729.00
2023-06-01T06:19:09.022Z,742.00
2023-06-01T06:20:10.074Z,738.00
2023-06-01T06:21:09.093Z,753.00
2023-06-01T06:22:09.172Z,776.00
2023-06-01T06:23:09.162Z,804.00
2023-06-01T06:24:10.235Z,798.00
2023-06-01T06:25:09.219Z,829.00
2023-06-01T06:26:10.251Z,869.00
2023-06-01T06:27:11.177Z,923.00
2023-06-01T06:28:10.259Z,956.00
2023-06-01T06:29:09.274Z,992.00
2023-06-01T06:30:09.265Z,1007.00
2023-06-01T06:31:10.249Z,1046.00
2023-06-01T06:32:10.309Z,1048.00
2023-06-01T06:33:11.615Z,1041.00
2023-06-01T06:34:09.235Z,1042.00
2023-06-01T06:35:10.256Z,1043.00
2023-06-01T06:36:10.215Z,1030.00
2023-06-01T06:37:09.200Z,1030.00
2023-06-01T06:38:09.218Z,1035.00
2023-06-01T06:39:09.194Z,1027.00
2023-06-01T06:40:10.252Z,1053.00
2023-06-01T06:41:10.197Z,1081.00
2023-06-01T06:42:09.187Z,1115.00
2023-06-01T06:43:10.160Z,1113.00
2023-06-01T06:44:10.164Z,1128.00
2023-06-01T06:45:10.166Z,1120.00
2023-06-01T06:46:10.146Z,1112.00
2023-06-01T06:47:10.248Z,1127.00
2023-06-01T06:48:10.163Z,1124.00
2023-06-01T06:49:10.134Z,1136.00
2023-06-01T06:50:09.108Z,1142.00
2023-06-01T06:51:10.094Z,1143.00
2023-06-01T06:52:10.095Z,1137.00
2023-06-01T06:53:09.084Z,1141.00
2023-06-01T06:54:10.087Z,1147.00
2023-06-01T06:55:10.074Z,1141.00
2023-06-01T06:56:09.078Z,1135.00
2023-06-01T06:57:10.058Z,1155.00
2023-06-01T06:58:10.066Z,1167.00
2023-06-01T06:59:10.046Z,1177.00
2023-06-01T07:00:10.483Z,1177.00
2023-06-01T07:01:10.082Z,1186.00
2023-06-01T07:02:10.066Z,1213.00
2023-06-01T07:03:10.122Z,1219.00
2023-06-01T07:04:09.089Z,1227.00
2023-06-01T07:05:08.993Z,1205.00
2023-06-01T07:06:08.987Z,1217.00
2023-06-01T07:07:08.998Z,1216.00
2023-06-01T07:08:09.999Z,1210.00
2023-06-01T07:09:08.959Z,1218.00
2023-06-01T07:10:09.945Z,1210.00
2023-06-01T07:11:09.946Z,1227.00
2023-06-01T07:12:09.970Z,1239.00
2023-06-01T07:13:09.931Z,1228.00
2023-06-01T07:14:09.917Z,1236.00
2023-06-01T07:15:09.920Z,1245.00
2023-06-01T07:16:08.899Z,1251.00
2023-06-01T07:17:10.083Z,1251.00
2023-06-01T07:18:09.922Z,1260.00
2023-06-01T07:19:09.882Z,1255.00
2023-06-01T07:20:09.871Z,1260.00
2023-06-01T07:21:08.864Z,1249.00
2023-06-01T07:22:09.848Z,1240.00
2023-06-01T07:23:09.840Z,1219.00
2023-06-01T07:24:09.831Z,1214.00
2023-06-01T07:25:09.849Z,1245.00
2023-06-01T07:26:09.852Z,1250.00
2023-06-01T07:27:09.829Z,1229.00
2023-06-01T07:28:08.823Z,1207.00
2023-06-01T07:29:08.799Z,1213.00
2023-06-01T07:30:09.787Z,1207.00
2023-06-01T07:31:09.948Z,1193.00
2023-06-01T07:32:09.856Z,1189.00
2023-06-01T07:33:09.898Z,1177.00
2023-06-01T07:34:08.751Z,1183.00
2023-06-01T07:35:09.753Z,1204.00
2023-06-01T07:36:08.742Z,1205.00
2023-06-01T07:37:17.785Z,1208.00
2023-06-01T07:38:09.716Z,1209.00
2023-06-01T07:39:08.713Z,1213.00
2023-06-01T07:40:09.713Z,1214.00
2023-06-01T07:41:08.705Z,1216.00
2023-06-01T07:42:09.693Z,1230.00
2023-06-01T07:43:09.696Z,1226.00
2023-06-01T07:44:09.688Z,1245.00
2023-06-01T07:45:09.684Z,1264.00
2023-06-01T07:46:08.712Z,1266.00
2023-06-01T07:47:09.659Z,1250.00
2023-06-01T07:48:11.174Z,1247.00
2023-06-01T07:49:08.658Z,1268.00
2023-06-01T07:50:09.653Z,1263.00
2023-06-01T07:51:09.660Z,1267.00
2023-06-01T07:52:09.617Z,1268.00
2023-06-01T07:53:09.612Z,1255.00
2023-06-01T07:54:09.614Z,1253.00
2023-06-01T07:55:09.620Z,1063.00
2023-06-01T07:56:09.626Z,960.00
2023-06-01T07:57:09.590Z,1006.00
2023-06-01T07:58:09.568Z,943.00
2023-06-01T07:59:09.646Z,655.00
2023-06-01T08:00:09.557Z,648.00
2023-06-01T08:01:09.556Z,679.00
2023-06-01T08:02:09.603Z,724.00
2023-06-01T08:03:09.672Z,684.00
2023-06-01T08:04:08.543Z,724.00
2023-06-01T08:05:09.571Z,754.00
2023-06-01T08:06:08.614Z,815.00
2023-06-01T08:07:09.537Z,825.00
2023-06-01T08:08:08.489Z,846.00
2023-06-01T08:09:08.493Z,818.00
2023-06-01T08:10:09.497Z,872.00
2023-06-01T08:11:09.475Z,896.00
2023-06-01T08:12:09.483Z,876.00
2023-06-01T08:13:09.681Z,921.00
2023-06-01T08:14:08.553Z,935.00
2023-06-01T08:15:09.468Z,929.00
2023-06-01T08:16:09.458Z,938.00
2023-06-01T08:17:09.464Z,942.00
2023-06-01T08:18:09.495Z,935.00
2023-06-01T08:19:08.436Z,940.00
2023-06-01T08:20:09.453Z,932.00
2023-06-01T08:21:09.418Z,943.00
2023-06-01T08:22:09.503Z,968.00
2023-06-01T08:23:09.411Z,971.00
2023-06-01T08:24:09.399Z,983.00
2023-06-01T08:25:08.398Z,977.00
2023-06-01T08:26:09.369Z,971.00
2023-06-01T08:27:09.379Z,978.00
2023-06-01T08:28:09.379Z,964.00
2023-06-01T08:29:09.412Z,948.00
2023-06-01T08:30:08.358Z,913.00
2023-06-01T08:31:08.389Z,942.00
2023-06-01T08:32:08.380Z,912.00
2023-06-01T08:33:09.379Z,845.00
2023-06-01T08:34:09.334Z,884.00
2023-06-01T08:35:09.331Z,897.00
2023-06-01T08:36:08.342Z,835.00
2023-06-01T08:37:08.354Z,607.00
2023-06-01T08:38:09.362Z,565.00
2023-06-01T08:39:09.355Z,564.00
2023-06-01T08:40:08.366Z,516.00
2023-06-01T08:41:08.368Z,498.00
2023-06-01T08:42:10.293Z,500.00
2023-06-01T08:43:09.380Z,535.00
2023-06-01T08:44:08.374Z,541.00
2023-06-01T08:45:08.532Z,550.00
2023-06-01T08:46:09.370Z,564.00
2023-06-01T08:47:08.470Z,552.00
2023-06-01T08:48:09.359Z,554.00
2023-06-01T08:49:09.339Z,548.00
2023-06-01T08:50:09.330Z,523.00
2023-06-01T08:51:08.317Z,547.00
2023-06-01T08:52:09.305Z,569.00
2023-06-01T08:53:09.307Z,574.00
2023-06-01T08:54:09.307Z,523.00
2023-06-01T08:55:09.297Z,465.00
2023-06-01T08:56:09.288Z,495.00
2023-06-01T08:57:09.487Z,504.00
2023-06-01T08:58:09.273Z,536.00
2023-06-01T08:59:08.258Z,514.00
2023-06-01T09:00:09.255Z,504.00
2023-06-01T09:01:09.319Z,494.00
2023-06-01T09:02:08.248Z,498.00
2023-06-01T09:03:08.376Z,495.00
2023-06-01T09:04:08.337Z,500.00
2023-06-01T09:05:09.220Z,504.00
2023-06-01T09:06:09.214Z,505.00
2023-06-01T09:07:09.229Z,499.00
2023-06-01T09:08:09.190Z,503.00
2023-06-01T09:09:09.272Z,505.00
2023-06-01T09:10:08.447Z,501.00
2023-06-01T09:11:08.166Z,500.00
2023-06-01T09:12:09.167Z,491.00
2023-06-01T09:13:09.174Z,501.00
2023-06-01T09:14:09.141Z,500.00
2023-06-01T09:15:09.141Z,500.00
2023-06-01T09:16:09.135Z,503.00
2023-06-01T09:17:09.159Z,515.00
2023-06-01T09:18:09.238Z,519.00
2023-06-01T09:19:09.340Z,506.00
2023-06-01T09:20:08.125Z,509.00
2023-06-01T09:21:08.092Z,501.00
2023-06-01T09:22:09.151Z,500.00
2023-06-01T09:23:09.091Z,501.00
2023-06-01T09:24:08.072Z,500.00
2023-06-01T09:25:09.119Z,503.00
2023-06-01T09:26:08.065Z,500.00
2023-06-01T09:27:09.066Z,504.00
2023-06-01T09:28:09.057Z,566.00
2023-06-01T09:29:08.039Z,594.00
2023-06-01T09:30:08.030Z,589.00
2023-06-01T09:31:08.084Z,569.00
2023-06-01T09:32:09.017Z,580.00
2023-06-01T09:33:09.046Z,659.00
2023-06-01T09:34:09.016Z,736.00
2023-06-01T09:35:09.038Z,824.00
2023-06-01T09:36:09.000Z,916.00
2023-06-01T09:37:09.005Z,1004.00
2023-06-01T09:38:08.989Z,1118.00
2023-06-01T09:39:09.012Z,1147.00
2023-06-01T09:40:08.975Z,1246.00
2023-06-01T09:41:08.952Z,1265.00
2023-06-01T09:42:08.952Z,1241.00
2023-06-01T09:43:07.933Z,1295.00
2023-06-01T09:44:07.926Z,1250.00
2023-06-01T09:45:07.924Z,1264.00
2023-06-01T09:46:07.925Z,1198.00
2023-06-01T09:47:08.943Z,817.00
2023-06-01T09:48:08.984Z,660.00
2023-06-01T09:49:07.887Z,637.00
2023-06-01T09:50:08.888Z,631.00
2023-06-01T09:51:08.057Z,626.00
2023-06-01T09:52:07.870Z,592.00
2023-06-01T09:53:08.854Z,585.00
2023-06-01T09:54:08.850Z,612.00
2023-06-01T09:55:08.830Z,628.00
2023-06-01T09:56:08.834Z,636.00
2023-06-01T09:57:12.009Z,630.00
2023-06-01T09:58:08.830Z,630.00
2023-06-01T09:59:08.826Z,626.00
2023-06-01T10:00:08.819Z,637.00
2023-06-01T10:01:08.819Z,652.00
2023-06-01T10:02:08.940Z,665.00
2023-06-01T10:03:07.893Z,711.00
2023-06-01T10:04:08.829Z,802.00
2023-06-01T10:05:08.782Z,860.00
2023-06-01T10:06:08.772Z,832.00
2023-06-01T10:07:08.768Z,725.00
2023-06-01T10:08:07.777Z,789.00
2023-06-01T10:09:07.758Z,833.00
2023-06-01T10:10:07.746Z,888.00
2023-06-01T10:11:08.811Z,902.00
2023-06-01T10:12:07.733Z,918.00
2023-06-01T10:13:07.715Z,935.00
2023-06-01T10:14:08.722Z,942.00
2023-06-01T10:15:20.372Z,969.00
2023-06-01T10:16:08.753Z,971.00
2023-06-01T10:17:07.705Z,977.00
2023-06-01T10:18:08.737Z,991.00
2023-06-01T10:19:08.669Z,1065.00
2023-06-01T10:20:07.659Z,1090.00
2023-06-01T10:21:08.684Z,1082.00
2023-06-01T10:22:08.744Z,1079.00
2023-06-01T10:23:13.725Z,1174.00
2023-06-01T10:24:08.645Z,1175.00
2023-06-01T10:25:07.634Z,1175.00
2023-06-01T10:26:08.641Z,1176.00
2023-06-01T10:27:08.638Z,1194.00
2023-06-01T10:28:07.627Z,1140.00
2023-06-01T10:29:08.634Z,1105.00
2023-06-01T10:30:07.590Z,1087.00
2023-06-01T10:31:08.617Z,1112.00
2023-06-01T10:32:08.731Z,1104.00
2023-06-01T10:33:08.631Z,1066.00
2023-06-01T10:34:10.674Z,1015.00
2023-06-01T10:35:08.577Z,1015.00
2023-06-01T10:36:08.558Z,1028.00
2023-06-01T10:37:08.549Z,1090.00
2023-06-01T10:38:08.601Z,1145.00
2023-06-01T10:39:07.522Z,1145.00
2023-06-01T10:40:08.521Z,1108.00
2023-06-01T10:41:08.533Z,1100.00
2023-06-01T10:42:08.521Z,1126.00
2023-06-01T10:43:07.486Z,1124.00
2023-06-01T10:44:08.500Z,1076.00
2023-06-01T10:45:08.518Z,1036.00
2023-06-01T10:46:07.598Z,1016.00
2023-06-01T10:47:07.506Z,1038.00
2023-06-01T10:48:07.502Z,1060.00
2023-06-01T10:49:07.458Z,1073.00
2023-06-01T10:50:07.446Z,1049.00
2023-06-01T10:51:08.451Z,1066.00
2023-06-01T10:52:08.435Z,1030.00
2023-06-01T10:53:08.442Z,989.00
2023-06-01T10:54:08.414Z,896.00
2023-06-01T10:55:08.437Z,989.00
2023-06-01T10:56:08.403Z,1042.00
2023-06-01T10:57:08.392Z,1056.00
2023-06-01T10:58:08.394Z,996.00
2023-06-01T10:59:17.374Z,993.00
2023-06-01T11:00:08.390Z,995.00
2023-06-01T11:01:08.373Z,1007.00
2023-06-01T11:02:08.439Z,1035.00
2023-06-01T11:03:07.452Z,1099.00
2023-06-01T11:04:08.386Z,1110.00
2023-06-01T11:05:08.398Z,1142.00
2023-06-01T11:06:09.567Z,1135.00
2023-06-01T11:07:08.322Z,1149.00
2023-06-01T11:08:08.305Z,1127.00
2023-06-01T11:09:07.323Z,1184.00
2023-06-01T11:10:08.313Z,1194.00
2023-06-01T11:11:08.308Z,1176.00
2023-06-01T11:12:08.395Z,1238.00
2023-06-01T11:13:08.284Z,1259.00
2023-06-01T11:14:08.305Z,1237.00
2023-06-01T11:15:08.340Z,1214.00
2023-06-01T11:16:10.368Z,1215.00
2023-06-01T11:17:08.260Z,1217.00
2023-06-01T11:18:07.312Z,1194.00
2023-06-01T11:19:07.234Z,1142.00
2023-06-01T11:20:08.271Z,1118.00
2023-06-01T11:21:07.222Z,917.00
2023-06-01T11:22:08.348Z,741.00
2023-06-01T11:23:07.204Z,655.00
2023-06-01T11:24:07.197Z,605.00
2023-06-01T11:25:08.191Z,583.00
2023-06-01T11:26:07.173Z,565.00
2023-06-01T11:27:07.173Z,552.00
2023-06-01T11:28:08.164Z,547.00
2023-06-01T11:29:07.165Z,542.00
2023-06-01T11:30:08.166Z,541.00
2023-06-01T11:31:07.132Z,530.00
2023-06-01T11:32:08.203Z,521.00
2023-06-01T11:33:08.208Z,535.00
2023-06-01T11:34:08.130Z,533.00
2023-06-01T11:35:07.110Z,531.00
2023-06-01T11:36:08.110Z,540.00
2023-06-01T11:37:07.103Z,548.00
2023-06-01T11:38:07.077Z,530.00
2023-06-01T11:39:19.779Z,513.00
2023-06-01T11:40:08.069Z,513.00
2023-06-01T11:41:07.070Z,516.00
2023-06-01T11:42:08.081Z,524.00
2023-06-01T11:43:08.047Z,522.00
2023-06-01T11:44:08.049Z,527.00
2023-06-01T11:45:08.039Z,519.00
2023-06-01T11:46:21.238Z,509.00
2023-06-01T11:47:08.063Z,510.00
2023-06-01T11:48:07.048Z,512.00
2023-06-01T11:49:08.024Z,515.00
2023-06-01T11:50:07.999Z,520.00
2023-06-01T11:51:06.977Z,534.00
2023-06-01T11:52:07.972Z,540.00
2023-06-01T11:53:06.968Z,548.00
2023-06-01T11:54:07.975Z,575.00
2023-06-01T11:55:07.980Z,577.00
2023-06-01T11:56:07.957Z,593.00
2023-06-01T11:57:06.957Z,618.00
2023-06-01T11:58:07.950Z,638.00
2023-06-01T11:59:06.934Z,659.00
2023-06-01T12:00:06.914Z,685.00
2023-06-01T12:01:07.922Z,696.00
2023-06-01T12:02:06.952Z,727.00
2023-06-01T12:03:08.075Z,779.00
2023-06-01T12:04:07.994Z,827.00
2023-06-01T12:05:06.880Z,898.00
2023-06-01T12:06:07.871Z,940.00
2023-06-01T12:07:07.123Z,986.00
2023-06-01T12:08:07.859Z,1040.00
2023-06-01T12:09:06.839Z,1093.00
2023-06-01T12:10:07.851Z,1113.00
2023-06-01T12:11:06.837Z,1168.00
2023-06-01T12:12:06.825Z,1211.00
2023-06-01T12:13:06.813Z,1252.00
2023-06-01T12:14:07.829Z,1278.00
2023-06-01T12:15:07.796Z,1304.00
2023-06-01T12:16:21.205Z,1342.00
2023-06-01T12:17:07.870Z,1343.00
2023-06-01T12:18:06.943Z,1357.00
2023-06-01T12:19:06.794Z,1387.00
2023-06-01T12:20:06.759Z,1423.00
2023-06-01T12:21:07.744Z,1501.00
2023-06-01T12:22:07.842Z,1513.00
2023-06-01T12:23:07.738Z,1533.00
2023-06-01T12:24:07.749Z,1564.00